Time;durP1;ratioP1;P1;durP2;ratioP2;P2;SDS_P1;SDS_P2;PMS_P1;PMS_P2;Temp;Humidity;BMP_temperature;BMP_pressure;BME280_temperature;BME280_humidity;BME280_pressure;Samples;Min_cycle;Max_cycle;Signal;HPM_P1;HPM_P2
2024/01/03 00:00:55;;;;;;;;;;;9.30;99.90;;;;;;5034167;28;19916;-69
2024/01/03 00:03:22;;;;;;;;;;;9.40;99.90;;;;;;5033973;28;20510;-69
2024/01/03 00:05:48;;;;;;;;;;;9.40;99.90;;;;;;5034738;28;19963;-69
2024/01/03 00:08:30;;;;;;;;;;;9.40;99.90;;;;;;5042569;28;19952;-69
2024/01/03 00:10:56;;;;;;;;;;;9.40;99.90;;;;;;5034749;28;19917;-69
2024/01/03 00:13:34;;;;;;;;;;;9.30;99.90;;;;;;5006787;28;20011;-69
2024/01/03 00:15:59;;;;;;;;;;;9.40;99.90;;;;;;5036461;28;19913;-69
2024/01/03 00:18:50;;;;;;;;;;;9.40;99.90;;;;;;5030364;28;19913;-69
2024/01/03 00:21:17;;;;;;;;;;;9.30;99.90;;;;;;5038415;28;19920;-69
2024/01/03 00:23:47;;;;;;;;;;;9.30;99.90;;;;;;5031106;28;19913;-69
2024/01/03 00:26:13;;;;;;;;;;;9.30;99.90;;;;;;5022564;28;19921;-69
2024/01/03 00:28:39;;;;;;;;;;;9.30;99.90;;;;;;5030020;28;19917;-69
2024/01/03 00:31:04;;;;;;;;;;;9.30;99.90;;;;;;5037020;27;19913;-69
2024/01/03 00:33:30;;;;;;;;;;;9.30;99.90;;;;;;5021834;28;19909;-69
2024/01/03 00:35:56;;;;;;;;;;;9.30;99.90;;;;;;5027102;28;20566;-69
2024/01/03 00:38:22;;;;;;;;;;;9.20;99.90;;;;;;5033323;28;20616;-69
2024/01/03 00:40:53;;;;;;;;;;;9.30;99.90;;;;;;5015646;28;19949;-70
2024/01/03 00:43:19;;;;;;;;;;;9.20;99.90;;;;;;5033754;28;19924;-69
2024/01/03 00:45:45;;;;;;;;;;;9.20;99.90;;;;;;5024017;28;19913;-69
2024/01/03 00:48:11;;;;;;;;;;;9.20;99.90;;;;;;5026462;28;19913;-70
2024/01/03 00:50:36;;;;;;;;;;;9.20;99.90;;;;;;5029630;28;20289;-69
2024/01/03 00:53:02;;;;;;;;;;;9.20;99.90;;;;;;5037048;28;19913;-70
2024/01/03 00:55:27;;;;;;;;;;;9.20;99.90;;;;;;5021611;28;19920;-69
2024/01/03 00:57:53;;;;;;;;;;;9.20;99.90;;;;;;5025947;28;20380;-69
2024/01/03 01:00:18;;;;;;;;;;;9.20;99.90;;;;;;5033366;28;19920;-69
2024/01/03 01:02:44;;;;;;;;;;;9.20;99.90;;;;;;5033174;28;19927;-69
2024/01/03 01:05:10;;;;;;;;;;;9.20;99.90;;;;;;5009102;28;19920;-69
2024/01/03 01:07:36;;;;;;;;;;;9.20;99.90;;;;;;5024065;28;20298;-69
2024/01/03 01:10:01;;;;;;;;;;;9.20;99.90;;;;;;5042923;28;19913;-69
2024/01/03 01:12:27;;;;;;;;;;;9.20;99.90;;;;;;5030681;28;19909;-69
2024/01/03 01:14:52;;;;;;;;;;;9.10;99.90;;;;;;5015629;28;20898;-69
2024/01/03 01:17:18;;;;;;;;;;;9.10;99.90;;;;;;5015203;28;19913;-69
2024/01/03 01:19:43;;;;;;;;;;;9.10;99.90;;;;;;5021739;28;19913;-69
2024/01/03 01:22:09;;;;;;;;;;;9.10;99.90;;;;;;5021958;28;19909;-69
2024/01/03 01:24:35;;;;;;;;;;;9.10;99.90;;;;;;5037933;28;19909;-69
2024/01/03 01:27:00;;;;;;;;;;;9.10;99.90;;;;;;5030287;28;19935;-69
2024/01/03 01:29:25;;;;;;;;;;;9.10;99.90;;;;;;5029960;28;20582;-69
2024/01/03 01:31:51;;;;;;;;;;;9.10;99.90;;;;;;5029176;28;20388;-70
2024/01/03 01:34:16;;;;;;;;;;;9.10;99.90;;;;;;5029311;28;19931;-69
2024/01/03 01:36:43;;;;;;;;;;;9.10;99.90;;;;;;5021444;28;19913;-69
2024/01/03 01:39:08;;;;;;;;;;;9.10;99.90;;;;;;5021820;28;20647;-69
2024/01/03 01:41:34;;;;;;;;;;;9.10;99.90;;;;;;5029899;28;19978;-69
2024/01/03 01:43:59;;;;;;;;;;;9.00;99.90;;;;;;5028117;28;19917;-69
2024/01/03 01:46:25;;;;;;;;;;;9.00;99.90;;;;;;5021346;28;19913;-69
2024/01/03 01:48:52;;;;;;;;;;;9.10;99.90;;;;;;5029641;28;19974;-69
2024/01/03 01:51:17;;;;;;;;;;;9.00;99.90;;;;;;5029215;28;19923;-69
2024/01/03 01:53:43;;;;;;;;;;;9.10;99.90;;;;;;5024217;28;19921;-69
2024/01/03 01:56:10;;;;;;;;;;;9.00;99.90;;;;;;5026763;28;20028;-69
2024/01/03 01:58:36;;;;;;;;;;;9.00;99.90;;;;;;5031802;28;20428;-69
2024/01/03 02:01:02;;;;;;;;;;;9.00;99.90;;;;;;5014850;28;19916;-69
2024/01/03 02:03:27;;;;;;;;;;;9.00;99.90;;;;;;5023324;28;19913;-69
2024/01/03 02:05:53;;;;;;;;;;;9.00;99.90;;;;;;5032939;28;19952;-69
2024/01/03 02:08:20;;;;;;;;;;;9.00;99.90;;;;;;5024632;28;19933;-69
2024/01/03 02:10:45;;;;;;;;;;;9.00;99.90;;;;;;5027512;28;19925;-69
2024/01/03 02:13:11;;;;;;;;;;;9.00;99.90;;;;;;5036094;28;19928;-69
2024/01/03 02:15:36;;;;;;;;;;;9.00;99.90;;;;;;5004265;28;19920;-69
2024/01/03 02:18:03;;;;;;;;;;;9.00;99.90;;;;;;5034966;28;19913;-69
2024/01/03 02:20:34;;;;;;;;;;;9.00;99.90;;;;;;5032122;28;20440;-69
2024/01/03 02:23:00;;;;;;;;;;;9.00;99.90;;;;;;5032583;28;19932;-69
2024/01/03 02:25:26;;;;;;;;;;;9.00;99.90;;;;;;5040893;28;19908;-69
2024/01/03 02:27:51;;;;;;;;;;;9.00;99.90;;;;;;5036504;28;20344;-69
2024/01/03 02:30:17;;;;;;;;;;;9.00;99.90;;;;;;5029779;28;20392;-69
2024/01/03 02:32:42;;;;;;;;;;;9.00;99.90;;;;;;5022403;28;19952;-69
2024/01/03 02:35:08;;;;;;;;;;;8.90;99.90;;;;;;5021402;28;19992;-69
2024/01/03 02:37:34;;;;;;;;;;;8.90;99.90;;;;;;5022537;28;19917;-69
2024/01/03 02:39:59;;;;;;;;;;;8.90;99.90;;;;;;5029915;28;19917;-69
2024/01/03 02:42:25;;;;;;;;;;;9.00;99.90;;;;;;5025796;28;19925;-69
2024/01/03 02:44:50;;;;;;;;;;;9.00;99.90;;;;;;5037069;28;19946;-69
2024/01/03 02:47:16;;;;;;;;;;;8.90;99.90;;;;;;5036051;28;19936;-69
2024/01/03 02:49:41;;;;;;;;;;;9.00;99.90;;;;;;5032416;28;19917;-69
2024/01/03 02:52:07;;;;;;;;;;;9.00;99.90;;;;;;5024730;28;19915;-69
2024/01/03 02:54:32;;;;;;;;;;;8.90;99.90;;;;;;5025830;28;19935;-69
2024/01/03 02:56:58;;;;;;;;;;;8.90;99.90;;;;;;5011261;28;19917;-69
2024/01/03 02:59:26;;;;;;;;;;;8.90;99.90;;;;;;5024085;28;20239;-69
2024/01/03 03:01:51;;;;;;;;;;;8.90;99.90;;;;;;5028607;28;19917;-69
2024/01/03 03:04:17;;;;;;;;;;;8.90;99.90;;;;;;5035908;28;20783;-69
2024/01/03 03:06:42;;;;;;;;;;;8.90;99.90;;;;;;5035637;28;20611;-69
2024/01/03 03:09:08;;;;;;;;;;;8.90;99.90;;;;;;5029070;28;19913;-69
2024/01/03 03:11:33;;;;;;;;;;;8.90;99.90;;;;;;5014213;28;20648;-69
2024/01/03 03:13:59;;;;;;;;;;;8.90;99.90;;;;;;5032474;28;20440;-69
2024/01/03 03:16:25;;;;;;;;;;;8.90;99.90;;;;;;5040513;28;19909;-69
2024/01/03 03:18:51;;;;;;;;;;;8.90;99.90;;;;;;5031565;28;19949;-69
2024/01/03 03:21:16;;;;;;;;;;;8.90;99.90;;;;;;5032073;28;19952;-69
2024/01/03 03:23:42;;;;;;;;;;;8.90;99.90;;;;;;5046879;28;19992;-69
2024/01/03 03:26:07;;;;;;;;;;;8.90;99.90;;;;;;5023971;28;19943;-69
2024/01/03 03:28:33;;;;;;;;;;;8.90;99.90;;;;;;5039807;28;19912;-69
2024/01/03 03:30:58;;;;;;;;;;;8.90;99.90;;;;;;5017654;28;19924;-69
2024/01/03 03:33:24;;;;;;;;;;;8.90;99.90;;;;;;5021976;28;19909;-69
2024/01/03 03:35:49;;;;;;;;;;;8.90;99.90;;;;;;5022993;28;19920;-69
2024/01/03 03:38:15;;;;;;;;;;;8.90;99.90;;;;;;5030944;28;20397;-69
2024/01/03 03:40:40;;;;;;;;;;;8.90;99.90;;;;;;5022865;28;19923;-69
2024/01/03 03:43:06;;;;;;;;;;;8.90;99.90;;;;;;5037876;28;19917;-70
2024/01/03 03:45:31;;;;;;;;;;;8.90;99.90;;;;;;5034489;28;20373;-69
2024/01/03 03:47:57;;;;;;;;;;;8.90;99.90;;;;;;5038394;28;19950;-69
2024/01/03 03:50:22;;;;;;;;;;;8.80;99.90;;;;;;5023263;28;19940;-69
2024/01/03 03:52:48;;;;;;;;;;;8.90;99.90;;;;;;5023516;28;19959;-69
2024/01/03 03:55:15;;;;;;;;;;;8.90;99.90;;;;;;5023329;28;20000;-69
2024/01/03 03:57:40;;;;;;;;;;;8.90;99.90;;;;;;5039211;28;19912;-69
2024/01/03 04:00:07;;;;;;;;;;;8.90;99.90;;;;;;5025788;28;19909;-69
2024/01/03 04:02:32;;;;;;;;;;;8.80;99.90;;;;;;5022901;28;20629;-69
2024/01/03 04:04:58;;;;;;;;;;;8.80;99.90;;;;;;5031426;28;19921;-69
2024/01/03 04:07:24;;;;;;;;;;;8.90;99.90;;;;;;5031108;28;19913;-69
2024/01/03 04:09:49;;;;;;;;;;;8.90;99.90;;;;;;5022906;28;19917;-69
2024/01/03 04:12:15;;;;;;;;;;;8.90;99.90;;;;;;5029781;28;20041;-69
2024/01/03 04:14:40;;;;;;;;;;;8.90;99.90;;;;;;5023584;28;20317;-69
2024/01/03 04:17:06;;;;;;;;;;;8.90;99.90;;;;;;5023007;28;19935;-69
2024/01/03 04:19:31;;;;;;;;;;;8.90;99.90;;;;;;5023825;28;20318;-69
2024/01/03 04:21:59;;;;;;;;;;;8.90;99.90;;;;;;5034856;28;19909;-69
2024/01/03 04:24:25;;;;;;;;;;;8.90;99.90;;;;;;5033960;28;20022;-69
2024/01/03 04:26:53;;;;;;;;;;;8.80;99.90;;;;;;5030509;28;20032;-69
2024/01/03 04:29:18;;;;;;;;;;;8.80;99.90;;;;;;5030188;28;19920;-69
2024/01/03 04:31:44;;;;;;;;;;;8.80;99.90;;;;;;5031405;28;19928;-69
2024/01/03 04:34:09;;;;;;;;;;;8.80;99.90;;;;;;5018066;28;19992;-69
2024/01/03 04:36:35;;;;;;;;;;;8.80;99.90;;;;;;5004805;28;19917;-69
2024/01/03 04:39:01;;;;;;;;;;;8.80;99.90;;;;;;5022658;28;19924;-69
2024/01/03 04:41:26;;;;;;;;;;;8.80;99.90;;;;;;5022481;28;20007;-69
2024/01/03 04:43:52;;;;;;;;;;;8.80;99.90;;;;;;5037952;28;20382;-69
2024/01/03 04:46:17;;;;;;;;;;;8.80;99.90;;;;;;5030933;28;19917;-69
2024/01/03 04:48:43;;;;;;;;;;;8.80;99.90;;;;;;5003923;28;19913;-69
2024/01/03 04:51:09;;;;;;;;;;;8.80;99.90;;;;;;5037255;28;19917;-69
2024/01/03 04:53:34;;;;;;;;;;;8.80;99.90;;;;;;5030135;28;19920;-69
2024/01/03 04:56:00;;;;;;;;;;;8.80;99.90;;;;;;5028641;28;20007;-69
2024/01/03 04:58:25;;;;;;;;;;;8.80;99.90;;;;;;5041339;28;19981;-69
2024/01/03 05:00:51;;;;;;;;;;;8.80;99.90;;;;;;5023894;28;20609;-69
2024/01/03 05:03:17;;;;;;;;;;;8.80;99.90;;;;;;5029466;28;19917;-69
2024/01/03 05:05:42;;;;;;;;;;;8.80;99.90;;;;;;5020749;28;19908;-70
2024/01/03 05:08:08;;;;;;;;;;;8.80;99.90;;;;;;5030445;28;19917;-69
2024/01/03 05:10:33;;;;;;;;;;;8.80;99.90;;;;;;5018206;28;19917;-69
2024/01/03 05:12:59;;;;;;;;;;;8.80;99.90;;;;;;5017157;28;19922;-69
2024/01/03 05:15:24;;;;;;;;;;;8.80;99.90;;;;;;5024677;28;19934;-69
2024/01/03 05:17:51;;;;;;;;;;;8.80;99.90;;;;;;5044945;27;20314;-69
2024/01/03 05:20:16;;;;;;;;;;;8.80;99.90;;;;;;5037016;28;19966;-69
2024/01/03 05:22:42;;;;;;;;;;;8.80;99.90;;;;;;5029979;28;19912;-69
2024/01/03 05:25:08;;;;;;;;;;;8.80;99.90;;;;;;5021680;28;20317;-70
2024/01/03 05:27:34;;;;;;;;;;;8.80;99.90;;;;;;5030188;28;20015;-69
2024/01/03 05:29:59;;;;;;;;;;;8.80;99.90;;;;;;5020117;28;19927;-69
2024/01/03 05:32:25;;;;;;;;;;;8.80;99.90;;;;;;5026504;28;20242;-69
2024/01/03 05:34:50;;;;;;;;;;;8.80;99.90;;;;;;5015594;28;20008;-69
2024/01/03 05:37:16;;;;;;;;;;;8.80;99.90;;;;;;5025808;28;19962;-69
2024/01/03 05:39:41;;;;;;;;;;;8.80;99.90;;;;;;5021063;28;19913;-69
2024/01/03 05:42:08;;;;;;;;;;;8.80;99.90;;;;;;5026361;28;19940;-69
2024/01/03 05:44:33;;;;;;;;;;;8.80;99.90;;;;;;5022471;28;19963;-69
2024/01/03 05:47:00;;;;;;;;;;;8.80;99.90;;;;;;5010454;28;19956;-69
2024/01/03 05:49:25;;;;;;;;;;;8.80;99.90;;;;;;5020194;28;20611;-69
2024/01/03 05:51:51;;;;;;;;;;;8.80;99.90;;;;;;5036311;28;19924;-69
2024/01/03 05:54:16;;;;;;;;;;;8.80;99.90;;;;;;5029710;28;19937;-69
2024/01/03 05:56:42;;;;;;;;;;;8.80;99.90;;;;;;5029260;28;19988;-69
2024/01/03 05:59:07;;;;;;;;;;;8.80;99.90;;;;;;5034561;28;19951;-69
2024/01/03 06:01:33;;;;;;;;;;;8.80;99.90;;;;;;5021555;28;19992;-69
2024/01/03 06:03:58;;;;;;;;;;;8.80;99.90;;;;;;5019346;28;19920;-69
2024/01/03 06:06:24;;;;;;;;;;;8.80;99.90;;;;;;5028056;28;19920;-69
2024/01/03 06:08:50;;;;;;;;;;;8.80;99.90;;;;;;5023654;28;19968;-69
2024/01/03 06:11:15;;;;;;;;;;;8.80;99.90;;;;;;5013001;28;19913;-69
2024/01/03 06:13:42;;;;;;;;;;;8.80;99.90;;;;;;5026578;28;19969;-69
2024/01/03 06:16:11;;;;;;;;;;;8.80;99.90;;;;;;5030236;28;19936;-69
2024/01/03 06:18:36;;;;;;;;;;;8.80;99.90;;;;;;5032399;28;19913;-69
2024/01/03 06:21:02;;;;;;;;;;;8.80;99.90;;;;;;5032562;28;20617;-69
2024/01/03 06:23:27;;;;;;;;;;;8.80;99.90;;;;;;5032652;28;19955;-69
2024/01/03 06:25:53;;;;;;;;;;;8.80;99.90;;;;;;5033118;28;19914;-69
2024/01/03 06:28:19;;;;;;;;;;;8.80;99.90;;;;;;5039937;28;20364;-69
2024/01/03 06:30:44;;;;;;;;;;;8.80;99.90;;;;;;5021911;28;19925;-69
2024/01/03 06:33:10;;;;;;;;;;;8.80;99.90;;;;;;5032588;28;19913;-69
2024/01/03 06:35:35;;;;;;;;;;;8.80;99.90;;;;;;5025795;28;19913;-69
2024/01/03 06:38:03;;;;;;;;;;;8.80;99.90;;;;;;5021107;28;19916;-69
2024/01/03 06:40:29;;;;;;;;;;;8.80;99.90;;;;;;5030593;28;20365;-69
2024/01/03 06:42:55;;;;;;;;;;;8.80;99.90;;;;;;5025626;28;20023;-69
2024/01/03 06:45:20;;;;;;;;;;;8.80;99.90;;;;;;5032920;28;20311;-69
2024/01/03 06:47:46;;;;;;;;;;;8.80;99.90;;;;;;5032064;28;20582;-69
2024/01/03 06:50:13;;;;;;;;;;;8.80;99.90;;;;;;5032398;28;19921;-69
2024/01/03 06:52:38;;;;;;;;;;;8.80;99.90;;;;;;5032009;28;19913;-69
2024/01/03 06:55:04;;;;;;;;;;;8.80;99.90;;;;;;5037931;28;20373;-69
2024/01/03 06:57:30;;;;;;;;;;;8.80;99.90;;;;;;5034658;28;20015;-69
2024/01/03 06:59:55;;;;;;;;;;;8.80;99.90;;;;;;5026290;28;19912;-69
2024/01/03 07:02:21;;;;;;;;;;;8.70;99.90;;;;;;5040008;28;19912;-69
2024/01/03 07:04:46;;;;;;;;;;;8.80;99.90;;;;;;5036204;28;19942;-69
2024/01/03 07:07:15;;;;;;;;;;;8.80;99.90;;;;;;5028923;28;19909;-69
2024/01/03 07:09:41;;;;;;;;;;;8.80;99.90;;;;;;5023190;28;19981;-69
2024/01/03 07:12:07;;;;;;;;;;;8.70;99.90;;;;;;5031653;28;19920;-69
2024/01/03 07:14:32;;;;;;;;;;;8.80;99.90;;;;;;5023136;28;19912;-69
2024/01/03 07:16:58;;;;;;;;;;;8.80;99.90;;;;;;5039121;28;19920;-69
2024/01/03 07:19:23;;;;;;;;;;;8.80;99.90;;;;;;5024069;28;19948;-69
2024/01/03 07:21:49;;;;;;;;;;;8.70;99.90;;;;;;5039770;28;19962;-69
2024/01/03 07:24:14;;;;;;;;;;;8.70;99.90;;;;;;5008852;28;19933;-69
2024/01/03 07:26:40;;;;;;;;;;;8.70;99.90;;;;;;5033739;28;20007;-69
2024/01/03 07:29:05;;;;;;;;;;;8.70;99.90;;;;;;5030042;28;20270;-69
2024/01/03 07:31:31;;;;;;;;;;;8.70;99.90;;;;;;5020355;28;19917;-69
2024/01/03 07:33:56;;;;;;;;;;;8.80;99.90;;;;;;5023460;28;19923;-69
2024/01/03 07:36:22;;;;;;;;;;;8.70;99.90;;;;;;5023350;28;19932;-69
2024/01/03 07:38:47;;;;;;;;;;;8.70;99.90;;;;;;5046797;27;19930;-69
2024/01/03 07:41:16;;;;;;;;;;;8.70;99.90;;;;;;5040651;27;19917;-69
2024/01/03 07:43:42;;;;;;;;;;;8.70;99.90;;;;;;5035325;28;19921;-69
2024/01/03 07:46:07;;;;;;;;;;;8.70;99.90;;;;;;5038730;28;20369;-69
2024/01/03 07:48:34;;;;;;;;;;;8.70;99.90;;;;;;5024268;28;19929;-69
2024/01/03 07:51:00;;;;;;;;;;;8.70;99.90;;;;;;5029912;28;19921;-70
2024/01/03 07:53:26;;;;;;;;;;;8.70;99.90;;;;;;5031342;28;20022;-70
2024/01/03 07:55:53;;;;;;;;;;;8.70;99.90;;;;;;5031254;28;19913;-69
2024/01/03 07:58:19;;;;;;;;;;;8.70;99.90;;;;;;5023291;28;19985;-69
2024/01/03 08:00:44;;;;;;;;;;;8.70;99.90;;;;;;5025199;28;19946;-69
2024/01/03 08:03:10;;;;;;;;;;;8.70;99.90;;;;;;5028664;28;19913;-70
2024/01/03 08:05:35;;;;;;;;;;;8.70;99.90;;;;;;5014355;28;19923;-69
2024/01/03 08:08:01;;;;;;;;;;;8.70;99.90;;;;;;5029996;28;19909;-69
2024/01/03 08:10:26;;;;;;;;;;;8.70;99.90;;;;;;5028951;28;19919;-69
2024/01/03 08:12:52;;;;;;;;;;;8.70;99.90;;;;;;5021362;28;19913;-69
2024/01/03 08:15:18;;;;;;;;;;;8.70;99.90;;;;;;5030260;28;19936;-69
2024/01/03 08:17:43;;;;;;;;;;;8.70;99.90;;;;;;5041522;28;19935;-69
2024/01/03 08:20:09;;;;;;;;;;;8.70;99.90;;;;;;5028554;28;19921;-69
2024/01/03 08:22:35;;;;;;;;;;;8.70;99.90;;;;;;5014230;28;19913;-69
2024/01/03 08:25:01;;;;;;;;;;;8.80;99.90;;;;;;5034980;28;20347;-69
2024/01/03 08:27:26;;;;;;;;;;;8.80;99.90;;;;;;5016301;28;19940;-69
2024/01/03 08:29:52;;;;;;;;;;;8.70;99.90;;;;;;5030779;28;19921;-69
2024/01/03 08:32:17;;;;;;;;;;;8.80;99.90;;;;;;5044746;28;19913;-69
2024/01/03 08:34:46;;;;;;;;;;;8.80;99.90;;;;;;5022717;28;19913;-69
2024/01/03 08:37:11;;;;;;;;;;;8.80;99.90;;;;;;5022792;28;20396;-69
2024/01/03 08:39:37;;;;;;;;;;;8.80;99.90;;;;;;5012536;28;19914;-69
2024/01/03 08:42:03;;;;;;;;;;;8.80;99.90;;;;;;5010591;28;20003;-70
2024/01/03 08:44:28;;;;;;;;;;;8.70;99.90;;;;;;5007625;28;19920;-70
2024/01/03 08:46:54;;;;;;;;;;;8.70;99.90;;;;;;5030103;28;19913;-69
2024/01/03 08:49:19;;;;;;;;;;;8.70;99.90;;;;;;5022190;28;20399;-69
2024/01/03 08:51:48;;;;;;;;;;;8.70;99.90;;;;;;5030118;28;19913;-69
2024/01/03 08:54:16;;;;;;;;;;;8.70;99.90;;;;;;5022323;28;19917;-69
2024/01/03 08:56:42;;;;;;;;;;;8.70;99.90;;;;;;5037170;27;19915;-69
2024/01/03 08:59:07;;;;;;;;;;;8.70;99.90;;;;;;5037408;28;19999;-69
2024/01/03 09:01:36;;;;;;;;;;;8.70;99.90;;;;;;5023712;28;19935;-69
2024/01/03 09:04:01;;;;;;;;;;;8.70;99.90;;;;;;5022504;28;20588;-69
2024/01/03 09:06:27;;;;;;;;;;;8.70;99.90;;;;;;5022228;28;19913;-69
2024/01/03 09:08:54;;;;;;;;;;;8.70;99.90;;;;;;5030904;28;19923;-69
2024/01/03 09:11:28;;;;;;;;;;;8.70;99.90;;;;;;5032580;28;19963;-69
2024/01/03 09:13:56;;;;;;;;;;;8.70;99.90;;;;;;5022892;28;19921;-69
2024/01/03 09:16:22;;;;;;;;;;;8.70;99.90;;;;;;5004020;28;19913;-69
2024/01/03 09:18:48;;;;;;;;;;;8.70;99.90;;;;;;5024789;28;19913;-69
2024/01/03 09:21:15;;;;;;;;;;;8.70;99.90;;;;;;5017587;28;19919;-69
2024/01/03 09:23:41;;;;;;;;;;;8.70;99.90;;;;;;5030255;28;19909;-69
2024/01/03 09:26:06;;;;;;;;;;;8.70;99.90;;;;;;5030693;28;20596;-69
2024/01/03 09:28:34;;;;;;;;;;;8.70;99.90;;;;;;5038574;28;19913;-69
2024/01/03 09:31:01;;;;;;;;;;;8.70;99.90;;;;;;5012665;28;19943;-69
2024/01/03 09:33:26;;;;;;;;;;;8.70;99.90;;;;;;5038196;28;19919;-69
2024/01/03 09:35:52;;;;;;;;;;;8.70;99.90;;;;;;5030271;28;19913;-69
2024/01/03 09:38:17;;;;;;;;;;;8.70;99.90;;;;;;5021959;28;19923;-69
2024/01/03 09:40:43;;;;;;;;;;;8.70;99.90;;;;;;5023408;28;19965;-69
2024/01/03 09:43:09;;;;;;;;;;;8.70;99.90;;;;;;5015395;28;20282;-69
2024/01/03 09:45:35;;;;;;;;;;;8.70;99.90;;;;;;5030979;28;19913;-69
2024/01/03 09:48:01;;;;;;;;;;;8.70;99.90;;;;;;5032310;28;19916;-69
2024/01/03 09:50:27;;;;;;;;;;;8.70;99.90;;;;;;5025089;28;19926;-69
2024/01/03 09:52:55;;;;;;;;;;;8.70;99.90;;;;;;5028806;28;19913;-69
2024/01/03 09:55:20;;;;;;;;;;;8.70;99.90;;;;;;5029642;28;19919;-69
2024/01/03 09:57:47;;;;;;;;;;;8.70;99.90;;;;;;5033083;28;19995;-69
2024/01/03 10:00:12;;;;;;;;;;;8.80;99.90;;;;;;5027197;28;20274;-69
2024/01/03 10:02:38;;;;;;;;;;;8.80;99.90;;;;;;5024658;28;19917;-69
2024/01/03 10:05:03;;;;;;;;;;;8.70;99.90;;;;;;5040398;28;19942;-70
2024/01/03 10:07:33;;;;;;;;;;;8.80;99.90;;;;;;5024681;28;19913;-69
2024/01/03 10:09:58;;;;;;;;;;;8.80;99.90;;;;;;5028712;28;19924;-69
2024/01/03 10:12:24;;;;;;;;;;;8.80;99.90;;;;;;5026233;28;19959;-69
2024/01/03 10:14:50;;;;;;;;;;;8.80;99.90;;;;;;5032453;28;19913;-69
2024/01/03 10:17:15;;;;;;;;;;;8.80;99.90;;;;;;5029688;28;19955;-69
2024/01/03 10:19:41;;;;;;;;;;;8.80;99.90;;;;;;5026024;28;20566;-69
2024/01/03 10:22:07;;;;;;;;;;;8.80;99.90;;;;;;5029978;28;19949;-69
2024/01/03 10:24:39;;;;;;;;;;;8.80;99.90;;;;;;5022906;28;19970;-69
2024/01/03 10:27:09;;;;;;;;;;;8.80;99.90;;;;;;5030440;28;19978;-69
2024/01/03 10:29:35;;;;;;;;;;;8.80;99.90;;;;;;5032058;28;19925;-69
2024/01/03 10:32:03;;;;;;;;;;;8.80;99.90;;;;;;5024132;28;19917;-69
2024/01/03 10:34:28;;;;;;;;;;;8.90;99.90;;;;;;5038368;28;19913;-69
2024/01/03 10:36:55;;;;;;;;;;;8.90;99.90;;;;;;5031886;28;19935;-69
2024/01/03 10:39:21;;;;;;;;;;;8.90;99.90;;;;;;5021018;28;19917;-69
2024/01/03 10:41:47;;;;;;;;;;;8.90;99.90;;;;;;5031794;28;19920;-69
2024/01/03 10:44:14;;;;;;;;;;;8.90;99.90;;;;;;5023711;28;20004;-69
2024/01/03 10:46:43;;;;;;;;;;;9.00;99.90;;;;;;5004771;28;20307;-69
2024/01/03 10:49:08;;;;;;;;;;;9.00;99.90;;;;;;5022554;28;19966;-69
2024/01/03 10:51:39;;;;;;;;;;;9.00;99.90;;;;;;5030720;28;20276;-69
2024/01/03 10:54:06;;;;;;;;;;;9.10;99.90;;;;;;5029995;28;19909;-69
2024/01/03 10:56:34;;;;;;;;;;;9.10;99.90;;;;;;5021983;28;19913;-69
2024/01/03 10:59:00;;;;;;;;;;;9.00;99.90;;;;;;5030854;28;19913;-70
2024/01/03 11:01:31;;;;;;;;;;;9.10;99.90;;;;;;5024936;28;20014;-69
2024/01/03 11:04:12;;;;;;;;;;;9.10;99.90;;;;;;5023710;28;19936;-69
2024/01/03 11:06:41;;;;;;;;;;;9.10;99.90;;;;;;5022558;28;19913;-69
2024/01/03 11:09:07;;;;;;;;;;;9.20;99.90;;;;;;5007079;28;19913;-69
2024/01/03 11:11:33;;;;;;;;;;;9.20;99.90;;;;;;5010734;28;19928;-69
2024/01/03 11:14:02;;;;;;;;;;;9.20;99.90;;;;;;5019231;28;19920;-70
2024/01/03 11:16:40;;;;;;;;;;;9.20;99.90;;;;;;5030909;28;19917;-69
2024/01/03 11:19:09;;;;;;;;;;;9.20;99.90;;;;;;5021987;28;20675;-69
2024/01/03 11:21:35;;;;;;;;;;;9.20;99.90;;;;;;5022772;28;19947;-69
2024/01/03 11:24:06;;;;;;;;;;;9.20;99.90;;;;;;5027812;28;19913;-70
2024/01/03 11:26:50;;;;;;;;;;;9.20;99.90;;;;;;5041843;28;20368;-69
2024/01/03 11:29:48;;;;;;;;;;;9.20;99.90;;;;;;5027546;28;19921;-69
2024/01/03 11:32:14;;;;;;;;;;;9.20;99.90;;;;;;5000893;28;20645;-69
2024/01/03 11:34:40;;;;;;;;;;;9.30;99.90;;;;;;5021387;28;19913;-69
2024/01/03 11:37:07;;;;;;;;;;;9.30;99.90;;;;;;5028537;28;20052;-69
2024/01/03 11:39:36;;;;;;;;;;;9.20;99.90;;;;;;5029754;28;19912;-69
2024/01/03 11:42:02;;;;;;;;;;;9.20;99.90;;;;;;5039463;28;19959;-69
2024/01/03 11:44:27;;;;;;;;;;;9.20;99.90;;;;;;5041836;28;19913;-69
2024/01/03 11:47:03;;;;;;;;;;;9.30;99.90;;;;;;5014748;28;19963;-69
2024/01/03 11:49:28;;;;;;;;;;;9.20;99.90;;;;;;5025093;28;19943;-69
2024/01/03 11:52:01;;;;;;;;;;;9.20;99.90;;;;;;5038171;28;20004;-69
2024/01/03 11:54:33;;;;;;;;;;;9.30;99.90;;;;;;5012503;28;19917;-69
2024/01/03 11:57:08;;;;;;;;;;;9.30;99.90;;;;;;5022990;28;19913;-69
2024/01/03 11:59:34;;;;;;;;;;;9.20;99.90;;;;;;5038189;28;19938;-69
2024/01/03 12:02:00;;;;;;;;;;;9.20;99.90;;;;;;5022271;28;19913;-69
2024/01/03 12:04:25;;;;;;;;;;;9.20;99.90;;;;;;5022106;28;19917;-69
2024/01/03 12:06:57;;;;;;;;;;;9.20;99.90;;;;;;5004186;28;19918;-69
2024/01/03 12:09:24;;;;;;;;;;;9.20;99.90;;;;;;5029165;28;19920;-69
2024/01/03 12:11:50;;;;;;;;;;;9.20;99.90;;;;;;5011813;28;20607;-69
2024/01/03 12:14:19;;;;;;;;;;;9.20;99.90;;;;;;5022146;28;19913;-69
2024/01/03 12:16:48;;;;;;;;;;;9.20;99.90;;;;;;5013838;28;20365;-69
2024/01/03 12:19:24;;;;;;;;;;;9.20;99.90;;;;;;5035898;28;19913;-69
2024/01/03 12:21:56;;;;;;;;;;;9.20;99.90;;;;;;5021417;28;19913;-69
2024/01/03 12:24:36;;;;;;;;;;;9.30;99.90;;;;;;5022017;28;19917;-70
2024/01/03 12:27:01;;;;;;;;;;;9.30;99.90;;;;;;5019303;28;19940;-69
2024/01/03 12:29:27;;;;;;;;;;;9.30;99.90;;;;;;5033864;28;19968;-70
2024/01/03 12:31:52;;;;;;;;;;;9.30;99.90;;;;;;5026208;28;19957;-69
2024/01/03 12:34:18;;;;;;;;;;;9.40;99.90;;;;;;5030230;28;20764;-69
2024/01/03 12:36:43;;;;;;;;;;;9.30;99.90;;;;;;5023390;28;19913;-69
2024/01/03 12:39:09;;;;;;;;;;;9.40;99.90;;;;;;5033464;28;19912;-69
2024/01/03 12:41:34;;;;;;;;;;;9.40;99.90;;;;;;5024276;28;19978;-70
2024/01/03 12:44:00;;;;;;;;;;;9.40;99.90;;;;;;5029303;28;20378;-69
2024/01/03 12:46:25;;;;;;;;;;;9.40;99.90;;;;;;5021663;28;19955;-70
2024/01/03 12:48:51;;;;;;;;;;;9.40;99.90;;;;;;5022012;28;20004;-70
2024/01/03 12:51:17;;;;;;;;;;;9.40;99.90;;;;;;5028491;28;19995;-69
2024/01/03 12:53:42;;;;;;;;;;;9.40;99.90;;;;;;5015119;28;20554;-69
2024/01/03 12:56:08;;;;;;;;;;;9.40;99.90;;;;;;5028368;28;19913;-69
2024/01/03 12:58:33;;;;;;;;;;;9.40;99.90;;;;;;5029607;28;20007;-69
2024/01/03 13:00:59;;;;;;;;;;;9.40;99.90;;;;;;5029300;28;19920;-69
2024/01/03 13:03:24;;;;;;;;;;;9.40;99.90;;;;;;5021819;28;19920;-69
2024/01/03 13:05:51;;;;;;;;;;;9.40;99.90;;;;;;5021391;28;19966;-70
2024/01/03 13:08:16;;;;;;;;;;;9.40;99.90;;;;;;5036279;28;19908;-70
2024/01/03 13:10:42;;;;;;;;;;;9.40;99.90;;;;;;5024623;28;20518;-69
2024/01/03 13:13:07;;;;;;;;;;;9.30;99.90;;;;;;5038196;28;19914;-69
2024/01/03 13:15:33;;;;;;;;;;;9.30;99.90;;;;;;5032621;28;19984;-69
2024/01/03 13:18:00;;;;;;;;;;;9.30;99.90;;;;;;5021646;28;19919;-69
2024/01/03 13:20:26;;;;;;;;;;;9.30;99.90;;;;;;5028524;28;19913;-69
2024/01/03 13:22:51;;;;;;;;;;;9.30;99.90;;;;;;5026344;28;20004;-69
2024/01/03 13:25:17;;;;;;;;;;;9.30;99.90;;;;;;5035038;28;19951;-69
2024/01/03 13:27:43;;;;;;;;;;;9.30;99.90;;;;;;5045098;28;19918;-69
2024/01/03 13:30:08;;;;;;;;;;;9.20;99.90;;;;;;5009180;28;19921;-69
2024/01/03 13:32:38;;;;;;;;;;;9.20;99.90;;;;;;5026312;28;20139;-69
2024/01/03 13:35:04;;;;;;;;;;;9.20;99.90;;;;;;5033314;28;19913;-69
2024/01/03 13:37:29;;;;;;;;;;;9.10;99.90;;;;;;5033188;28;20428;-69
2024/01/03 13:39:55;;;;;;;;;;;9.10;99.90;;;;;;5002508;28;19925;-69
2024/01/03 13:42:20;;;;;;;;;;;9.10;99.90;;;;;;5035921;28;20122;-69
2024/01/03 13:44:46;;;;;;;;;;;9.10;99.90;;;;;;5030328;28;20424;-69
2024/01/03 13:47:11;;;;;;;;;;;9.10;99.90;;;;;;5003336;28;19916;-69
2024/01/03 13:49:37;;;;;;;;;;;9.00;99.90;;;;;;5020775;28;19913;-69
2024/01/03 13:52:04;;;;;;;;;;;9.10;99.90;;;;;;5027504;28;19913;-69
2024/01/03 13:54:29;;;;;;;;;;;9.00;99.90;;;;;;5001589;28;19920;-69
2024/01/03 13:56:55;;;;;;;;;;;9.00;99.90;;;;;;5021196;28;19909;-69
2024/01/03 13:59:20;;;;;;;;;;;9.00;99.90;;;;;;5043190;28;20024;-69
2024/01/03 14:01:46;;;;;;;;;;;9.00;99.90;;;;;;5028214;28;19909;-69
2024/01/03 14:04:13;;;;;;;;;;;9.00;99.90;;;;;;5026075;28;19912;-69
2024/01/03 14:06:39;;;;;;;;;;;9.00;99.90;;;;;;5023902;28;19921;-69
2024/01/03 14:09:04;;;;;;;;;;;8.90;99.90;;;;;;5027788;28;19997;-69
2024/01/03 14:11:30;;;;;;;;;;;8.90;99.90;;;;;;5006323;28;20354;-69
2024/01/03 14:13:55;;;;;;;;;;;8.90;99.90;;;;;;5028221;28;20382;-69
2024/01/03 14:16:21;;;;;;;;;;;8.90;99.90;;;;;;5035274;28;19916;-68
2024/01/03 14:18:46;;;;;;;;;;;8.90;99.90;;;;;;5037398;28;20439;-69
2024/01/03 14:21:12;;;;;;;;;;;8.90;99.90;;;;;;5020411;28;19964;-69
2024/01/03 14:23:39;;;;;;;;;;;8.90;99.90;;;;;;5003152;28;20459;-69
2024/01/03 14:26:08;;;;;;;;;;;8.90;99.90;;;;;;5025950;28;19920;-69